Time;durP1;ratioP1;P1;durP2;ratioP2;P2;SDS_P1;SDS_P2;PMS_P1;PMS_P2;Temp;Humidity;BMP_temperature;BMP_pressure;BME280_temperature;BME280_humidity;BME280_pressure;Samples;Min_cycle;Max_cycle;Signal;HPM_P1;HPM_P2
2022/02/09 00:02:00;;;;;;;26.23;13.40;;;;;;;;;;6255662;28;20378;-67
2022/02/09 00:05:18;;;;;;;24.15;13.68;;;;;;;;;;6251505;28;20052;-65
2022/02/09 00:08:21;;;;;;;28.83;14.25;;;;;;;;;;6255820;28;20588;-66
2022/02/09 00:11:27;;;;;;;24.25;14.82;;;;;;;;;;6259722;28;20041;-66
2022/02/09 00:14:39;;;;;;;29.02;14.38;;;;;;;;;;6261954;28;20049;-66
2022/02/09 00:17:47;;;;;;;26.75;14.50;;;;;;;;;;6260311;28;20124;-65
2022/02/09 00:24:42;;;;;;;30.40;15.60;;;;;;;;;;6260596;28;20045;-65
2022/02/09 00:31:31;;;;;;;30.17;15.18;;;;;;;;;;6233401;28;20055;-65
2022/02/09 00:38:45;;;;;;;29.63;15.50;;;;;;;;;;6279342;27;21215;-65
2022/02/09 00:42:16;;;;;;;25.67;16.02;;;;;;;;;;6231110;28;20541;-65
2022/02/09 00:59:15;;;;;;;130.32;55.10;;;;;;;;;;6233829;28;20046;-66
2022/02/09 01:38:56;;;;;;;22.15;12.90;;;;;;;;;;6232128;28;20132;-64
2022/02/09 01:55:27;;;;;;;25.00;12.57;;;;;;;;;;6259011;28;20044;-65
2022/02/09 01:58:31;;;;;;;22.73;11.88;;;;;;;;;;6262043;28;20044;-66
2022/02/09 02:01:34;;;;;;;19.47;11.70;;;;;;;;;;6262753;28;20064;-64
2022/02/09 02:04:36;;;;;;;19.23;11.65;;;;;;;;;;6260501;28;20920;-66
2022/02/09 02:07:46;;;;;;;16.27;10.73;;;;;;;;;;6265946;28;20187;-65
2022/02/09 02:10:58;;;;;;;18.52;10.65;;;;;;;;;;6261993;28;20053;-64
2022/02/09 02:14:12;;;;;;;18.77;11.10;;;;;;;;;;6259068;28;20075;-65
2022/02/09 02:17:21;;;;;;;17.40;10.43;;;;;;;;;;6265254;28;20040;-64
2022/02/09 02:20:34;;;;;;;17.13;10.23;;;;;;;;;;6262912;28;20050;-65
2022/02/09 02:23:54;;;;;;;16.02;10.27;;;;;;;;;;6258791;28;20064;-65
2022/02/09 02:27:13;;;;;;;16.15;10.77;;;;;;;;;;6262600;28;20052;-66
2022/02/09 02:37:16;;;;;;;23.08;10.13;;;;;;;;;;6229517;28;20057;-65
2022/02/09 02:40:47;;;;;;;15.75;9.13;;;;;;;;;;6257697;28;20065;-65
2022/02/09 02:47:24;;;;;;;14.98;8.90;;;;;;;;;;6243041;28;20378;-65
2022/02/09 02:57:18;;;;;;;14.20;8.52;;;;;;;;;;6262567;28;20046;-65
2022/02/09 03:13:37;;;;;;;14.32;7.93;;;;;;;;;;6253499;28;20498;-64
2022/02/09 03:16:47;;;;;;;11.88;8.32;;;;;;;;;;6265017;28;20056;-64
2022/02/09 03:19:58;;;;;;;17.58;9.38;;;;;;;;;;6261610;28;20045;-65
2022/02/09 03:23:13;;;;;;;14.65;8.82;;;;;;;;;;6257898;28;20056;-64
2022/02/09 03:43:17;;;;;;;15.00;8.75;;;;;;;;;;6257940;28;20045;-64
2022/02/09 03:46:34;;;;;;;14.35;8.48;;;;;;;;;;6258881;28;20517;-65
2022/02/09 03:49:54;;;;;;;13.93;8.18;;;;;;;;;;6260669;28;20064;-64
2022/02/09 03:53:23;;;;;;;17.25;8.43;;;;;;;;;;6259182;28;20048;-65
2022/02/09 03:56:29;;;;;;;12.65;7.88;;;;;;;;;;6256815;28;20139;-64
2022/02/09 03:59:34;;;;;;;15.30;7.50;;;;;;;;;;6257347;28;20056;-64
2022/02/09 04:02:37;;;;;;;12.65;8.15;;;;;;;;;;6260632;28;20481;-64
2022/02/09 04:05:39;;;;;;;12.48;7.70;;;;;;;;;;6257181;28;20125;-65
2022/02/09 04:08:46;;;;;;;12.05;7.85;;;;;;;;;;6259789;28;20057;-64
2022/02/09 04:11:54;;;;;;;12.82;7.88;;;;;;;;;;6253676;28;20051;-66
2022/02/09 04:15:03;;;;;;;17.83;8.13;;;;;;;;;;6260817;28;20337;-65
2022/02/09 04:18:17;;;;;;;12.95;7.80;;;;;;;;;;6262946;28;20057;-65
2022/02/09 04:38:04;;;;;;;15.07;7.82;;;;;;;;;;6263229;28;20058;-66
2022/02/09 04:41:24;;;;;;;12.45;7.72;;;;;;;;;;6257056;28;20045;-65
2022/02/09 04:44:47;;;;;;;14.20;7.72;;;;;;;;;;6261048;28;20065;-65
2022/02/09 04:47:55;;;;;;;15.95;8.05;;;;;;;;;;6261692;28;20045;-65
2022/02/09 04:51:03;;;;;;;15.57;7.88;;;;;;;;;;6257821;28;20125;-64
2022/02/09 04:54:21;;;;;;;14.63;8.20;;;;;;;;;;6259411;28;20045;-65
2022/02/09 04:57:33;;;;;;;13.00;8.25;;;;;;;;;;6254860;28;20118;-65
2022/02/09 05:00:43;;;;;;;16.15;7.93;;;;;;;;;;6265141;28;20126;-65
2022/02/09 05:04:18;;;;;;;15.75;7.32;;;;;;;;;;6254983;28;20041;-65
2022/02/09 05:24:07;;;;;;;14.55;8.10;;;;;;;;;;6258441;28;20068;-65
2022/02/09 05:27:18;;;;;;;14.07;7.50;;;;;;;;;;6263963;28;20054;-65
2022/02/09 05:30:20;;;;;;;13.77;7.22;;;;;;;;;;6257417;28;20498;-65
2022/02/09 05:33:22;;;;;;;19.75;7.93;;;;;;;;;;6263880;28;20045;-65
2022/02/09 05:36:24;;;;;;;15.70;8.48;;;;;;;;;;6257853;28;20080;-65
2022/02/09 05:39:27;;;;;;;15.00;7.80;;;;;;;;;;6264171;28;20041;-64
2022/02/09 05:42:28;;;;;;;15.43;8.00;;;;;;;;;;6262352;28;20130;-65
2022/02/09 05:45:40;;;;;;;14.55;8.05;;;;;;;;;;6259974;28;20123;-65
2022/02/09 05:52:03;;;;;;;18.00;9.00;;;;;;;;;;6260428;28;20045;-65
2022/02/09 05:55:23;;;;;;;15.82;9.48;;;;;;;;;;6259751;28;20049;-65
2022/02/09 05:58:45;;;;;;;20.23;8.88;;;;;;;;;;6266227;28;20130;-65
2022/02/09 06:01:47;;;;;;;20.77;10.60;;;;;;;;;;6260972;28;20049;-65
2022/02/09 06:04:48;;;;;;;19.27;9.88;;;;;;;;;;6259630;28;20045;-62
2022/02/09 06:07:50;;;;;;;21.58;10.77;;;;;;;;;;6264423;28;20404;-65
2022/02/09 06:11:07;;;;;;;23.52;10.13;;;;;;;;;;6256843;28;20132;-64
2022/02/09 06:14:24;;;;;;;17.23;10.32;;;;;;;;;;6262023;28;20064;-64
2022/02/09 06:20:45;;;;;;;19.58;10.65;;;;;;;;;;6257170;28;20120;-64
2022/02/09 06:23:48;;;;;;;16.63;10.75;;;;;;;;;;6262223;28;20052;-64
2022/02/09 06:26:51;;;;;;;17.55;10.35;;;;;;;;;;6257776;28;20049;-64
2022/02/09 06:29:52;;;;;;;17.20;10.32;;;;;;;;;;6264368;28;20124;-64
2022/02/09 06:32:54;;;;;;;22.58;10.38;;;;;;;;;;6256519;28;20049;-64
2022/02/09 06:36:00;;;;;;;23.23;11.00;;;;;;;;;;6266882;28;20106;-64
2022/02/09 06:39:05;;;;;;;19.98;10.70;;;;;;;;;;6259590;28;20049;-64
2022/02/09 06:42:08;;;;;;;17.83;10.85;;;;;;;;;;6259396;28;20130;-64
2022/02/09 06:45:16;;;;;;;22.60;11.07;;;;;;;;;;6263195;28;20171;-64
2022/02/09 06:48:19;;;;;;;20.48;10.82;;;;;;;;;;6262246;28;20072;-64
2022/02/09 06:51:26;;;;;;;26.70;12.55;;;;;;;;;;6263218;28;20195;-64
2022/02/09 06:54:31;;;;;;;29.15;12.10;;;;;;;;;;6261010;28;20411;-64
2022/02/09 06:57:58;;;;;;;24.05;11.85;;;;;;;;;;6267006;28;20421;-63
2022/02/09 07:00:55;;;;;;;27.27;12.52;;;;;;;;;;6262287;28;20052;-64
2022/02/09 07:03:57;;;;;;;26.45;13.05;;;;;;;;;;6237677;28;20041;-64
2022/02/09 07:06:58;;;;;;;24.33;12.75;;;;;;;;;;6266514;28;20060;-64
2022/02/09 07:10:00;;;;;;;29.13;12.88;;;;;;;;;;6262569;28;20378;-64
2022/02/09 07:13:03;;;;;;;29.63;13.10;;;;;;;;;;6257101;28;20048;-64
2022/02/09 07:16:05;;;;;;;24.20;12.45;;;;;;;;;;6261719;28;20083;-64
2022/02/09 07:19:09;;;;;;;23.77;12.60;;;;;;;;;;6259326;28;20540;-64
2022/02/09 07:22:15;;;;;;;19.42;12.02;;;;;;;;;;6255751;28;20493;-64
2022/02/09 07:25:19;;;;;;;17.20;11.77;;;;;;;;;;6254610;28;20068;-64
2022/02/09 07:28:22;;;;;;;20.70;11.60;;;;;;;;;;6258214;28;20085;-64
2022/02/09 07:31:24;;;;;;;22.67;12.68;;;;;;;;;;6255885;28;20068;-64
2022/02/09 07:34:25;;;;;;;24.33;11.82;;;;;;;;;;6259803;28;20057;-64
2022/02/09 07:37:27;;;;;;;27.40;12.13;;;;;;;;;;6264101;28;20155;-65
2022/02/09 07:40:28;;;;;;;25.42;11.98;;;;;;;;;;6259665;28;20098;-64
2022/02/09 07:43:43;;;;;;;23.33;12.10;;;;;;;;;;6266843;28;20052;-64
2022/02/09 07:47:02;;;;;;;26.17;13.00;;;;;;;;;;6255400;28;20059;-64
2022/02/09 07:50:29;;;;;;;22.83;12.68;;;;;;;;;;6257584;28;20045;-64
2022/02/09 07:53:38;;;;;;;25.50;13.30;;;;;;;;;;6263717;28;20424;-64
2022/02/09 07:56:41;;;;;;;24.25;11.77;;;;;;;;;;6258543;28;20045;-64
2022/02/09 07:59:44;;;;;;;25.08;13.50;;;;;;;;;;6265341;28;20575;-64
2022/02/09 08:02:46;;;;;;;23.10;12.63;;;;;;;;;;6264419;28;20045;-64
2022/02/09 08:05:48;;;;;;;24.45;12.00;;;;;;;;;;6237488;28;20408;-64
2022/02/09 08:08:50;;;;;;;23.60;12.70;;;;;;;;;;6264731;28;20536;-64
2022/02/09 08:12:00;;;;;;;25.75;12.52;;;;;;;;;;6262150;28;20135;-64
2022/02/09 08:35:18;;;;;;;20.40;12.20;;;;;;;;;;6245525;28;20052;-64
2022/02/09 08:38:20;;;;;;;27.52;12.88;;;;;;;;;;6258007;28;20114;-64
2022/02/09 08:41:21;;;;;;;29.70;12.55;;;;;;;;;;6259745;28;20191;-64
2022/02/09 08:44:25;;;;;;;26.90;13.57;;;;;;;;;;6255139;28;20476;-64
2022/02/09 08:47:27;;;;;;;33.60;12.95;;;;;;;;;;6256479;28;20056;-64
2022/02/09 08:50:29;;;;;;;24.85;12.98;;;;;;;;;;6255628;28;20644;-64
2022/02/09 08:53:33;;;;;;;24.15;12.77;;;;;;;;;;6254403;28;20102;-64
2022/02/09 08:56:38;;;;;;;28.25;12.77;;;;;;;;;;6262286;28;20045;-64
2022/02/09 08:59:40;;;;;;;22.85;12.35;;;;;;;;;;6262184;28;20126;-64
2022/02/09 09:02:46;;;;;;;22.45;12.48;;;;;;;;;;6272099;28;20064;-64
2022/02/09 09:05:50;;;;;;;22.27;12.27;;;;;;;;;;6268019;28;20076;-65
2022/02/09 09:09:05;;;;;;;23.25;12.73;;;;;;;;;;6264228;28;20057;-65
2022/02/09 09:19:01;;;;;;;25.92;13.40;;;;;;;;;;6265512;28;20053;-64
2022/02/09 09:59:01;;;;;;;21.95;13.05;;;;;;;;;;6262377;28;20046;-64
2022/02/09 10:02:06;;;;;;;23.35;13.57;;;;;;;;;;6260574;28;20045;-65
2022/02/09 10:05:33;;;;;;;20.73;12.32;;;;;;;;;;6259290;28;20045;-65
2022/02/09 10:32:45;;;;;;;22.48;13.13;;;;;;;;;;6256876;28;20041;-65
2022/02/09 10:36:00;;;;;;;22.20;13.20;;;;;;;;;;6256728;28;20045;-65
2022/02/09 10:39:08;;;;;;;21.25;11.85;;;;;;;;;;6257653;28;20387;-65
2022/02/09 10:42:15;;;;;;;24.70;10.20;;;;;;;;;;6256498;28;20334;-65
2022/02/09 10:45:32;;;;;;;19.92;8.95;;;;;;;;;;6257238;28;20605;-64
2022/02/09 10:48:37;;;;;;;23.20;8.45;;;;;;;;;;6255357;28;20512;-64
2022/02/09 10:51:45;;;;;;;19.60;8.15;;;;;;;;;;6256580;28;20474;-65
2022/02/09 10:54:46;;;;;;;13.80;7.10;;;;;;;;;;6260505;28;20052;-65
2022/02/09 10:57:49;;;;;;;14.23;6.90;;;;;;;;;;6262505;28;20192;-65
2022/02/09 11:00:52;;;;;;;12.57;6.05;;;;;;;;;;6256272;28;20191;-65
2022/02/09 11:03:55;;;;;;;13.52;5.43;;;;;;;;;;6262333;28;20516;-65
2022/02/09 11:06:57;;;;;;;14.35;6.13;;;;;;;;;;6257723;28;20211;-64
2022/02/09 11:09:59;;;;;;;10.65;5.15;;;;;;;;;;6261793;28;20049;-64
2022/02/09 11:13:04;;;;;;;13.35;4.90;;;;;;;;;;6261851;28;20055;-65
2022/02/09 11:16:06;;;;;;;10.57;4.72;;;;;;;;;;6255771;28;20048;-65
2022/02/09 11:19:09;;;;;;;9.45;4.82;;;;;;;;;;6262706;28;20408;-64
2022/02/09 11:22:12;;;;;;;11.40;4.60;;;;;;;;;;6257101;28;20046;-64
2022/02/09 11:25:19;;;;;;;14.75;5.10;;;;;;;;;;6254162;28;20068;-65
2022/02/09 11:28:29;;;;;;;10.80;4.32;;;;;;;;;;6257745;28;20088;-64
2022/02/09 11:31:35;;;;;;;10.20;5.55;;;;;;;;;;6252939;28;20041;-65
2022/02/09 11:35:17;;;;;;;10.50;5.00;;;;;;;;;;6259574;28;20041;-64
2022/02/09 11:38:36;;;;;;;12.68;5.07;;;;;;;;;;6257579;28;20167;-65
2022/02/09 11:41:51;;;;;;;11.68;5.30;;;;;;;;;;6257580;28;20084;-65
2022/02/09 11:45:00;;;;;;;11.50;4.93;;;;;;;;;;6253297;28;20068;-65
2022/02/09 11:48:16;;;;;;;9.60;4.65;;;;;;;;;;6252789;28;20065;-65
2022/02/09 11:51:34;;;;;;;13.23;5.28;;;;;;;;;;6253277;28;20258;-65
2022/02/09 12:11:58;;;;;;;9.27;3.55;;;;;;;;;;6254818;28;20466;-65
2022/02/09 12:15:11;;;;;;;10.38;4.20;;;;;;;;;;6256940;28;20135;-64
2022/02/09 12:18:24;;;;;;;10.43;3.63;;;;;;;;;;6260375;28;20143;-64
2022/02/09 12:21:39;;;;;;;;;;;;;;;;;;6252346;28;20457;-65
2022/02/09 12:24:42;;;;;;;8.95;3.53;;;;;;;;;;6257263;28;20002;-64
2022/02/09 12:27:49;;;;;;;17.20;4.22;;;;;;;;;;6256423;28;20041;-65
2022/02/09 12:31:03;;;;;;;17.73;3.88;;;;;;;;;;6256834;28;20045;-65
2022/02/09 12:34:07;;;;;;;9.50;3.28;;;;;;;;;;6253467;28;20048;-66
2022/02/09 12:37:12;;;;;;;11.10;3.35;;;;;;;;;;6254540;28;20057;-65
2022/02/09 12:40:16;;;;;;;11.63;3.30;;;;;;;;;;6251704;28;20087;-66
2022/02/09 12:43:17;;;;;;;;;;;;;;;;;;6261592;28;20072;-65
2022/02/09 12:46:22;;;;;;;12.02;3.42;;;;;;;;;;6257723;28;20414;-65
2022/02/09 12:49:31;;;;;;;8.77;3.38;;;;;;;;;;6254997;28;20091;-65
2022/02/09 12:52:35;;;;;;;10.90;3.83;;;;;;;;;;6253244;28;20052;-65
2022/02/09 12:55:38;;;;;;;11.07;3.42;;;;;;;;;;6257781;28;20053;-65
2022/02/09 12:58:39;;;;;;;11.00;3.20;;;;;;;;;;6258724;28;20053;-65
2022/02/09 13:01:45;;;;;;;10.07;3.22;;;;;;;;;;6254650;28;20183;-66
2022/02/09 13:04:47;;;;;;;7.00;2.92;;;;;;;;;;6253504;28;20071;-66
2022/02/09 13:07:56;;;;;;;8.90;2.67;;;;;;;;;;6256122;28;20135;-65
2022/02/09 13:11:04;;;;;;;10.48;3.40;;;;;;;;;;6256063;28;20037;-66
2022/02/09 13:14:10;;;;;;;10.15;3.30;;;;;;;;;;6256205;28;20048;-65
2022/02/09 14:12:25;;;;;;;7.22;3.42;;;;;;;;;;6106529;28;20048;-67
2022/02/09 14:19:10;;;;;;;9.02;3.80;;;;;;;;;;6260065;28;20044;-67
2022/02/09 14:35:52;;;;;;;11.88;4.03;;;;;;;;;;6254738;28;20057;-67
2022/02/09 14:52:40;;;;;;;7.22;2.60;;;;;;;;;;6261272;28;20045;-66
2022/02/09 14:55:51;;;;;;;9.93;3.10;;;;;;;;;;6256876;28;20401;-66
2022/02/09 14:58:58;;;;;;;7.38;2.55;;;;;;;;;;6257386;28;20037;-66
2022/02/09 15:02:06;;;;;;;7.50;3.08;;;;;;;;;;6254086;28;20040;-66
2022/02/09 15:05:39;;;;;;;7.00;2.88;;;;;;;;;;6257184;28;20056;-67
2022/02/09 15:08:47;;;;;;;10.73;3.13;;;;;;;;;;6254759;28;20053;-66
2022/02/09 15:11:58;;;;;;;9.90;2.70;;;;;;;;;;6255591;28;20076;-67
2022/02/09 15:15:12;;;;;;;8.77;2.78;;;;;;;;;;6261342;28;20037;-67
2022/02/09 15:18:36;;;;;;;11.07;3.55;;;;;;;;;;6258510;28;20123;-67
2022/02/09 15:25:18;;;;;;;9.57;3.17;;;;;;;;;;6251249;28;20042;-67
2022/02/09 15:28:20;;;;;;;8.93;3.10;;;;;;;;;;6256148;28;20041;-67
2022/02/09 15:31:28;;;;;;;8.40;4.03;;;;;;;;;;6252864;28;20539;-66
2022/02/09 15:34:35;;;;;;;11.50;4.28;;;;;;;;;;6254978;28;20045;-67
2022/02/09 15:37:43;;;;;;;16.83;3.50;;;;;;;;;;6253093;28;20060;-64
2022/02/09 15:40:53;;;;;;;9.98;3.70;;;;;;;;;;6258726;28;20378;-65
2022/02/09 15:58:02;;;;;;;8.57;4.05;;;;;;;;;;6255318;28;20053;-65
2022/02/09 16:11:20;;;;;;;10.02;3.65;;;;;;;;;;6256883;28;20053;-67
2022/02/09 16:24:29;;;;;;;14.30;4.20;;;;;;;;;;6255208;28;20430;-66
2022/02/09 16:37:47;;;;;;;8.73;4.28;;;;;;;;;;6255518;28;20170;-67
2022/02/09 16:44:22;;;;;;;10.30;3.95;;;;;;;;;;6254708;28;20045;-66
2022/02/09 16:47:44;;;;;;;8.82;3.80;;;;;;;;;;6257525;28;20394;-67
2022/02/09 16:50:50;;;;;;;13.00;4.43;;;;;;;;;;6260843;28;20203;-67
2022/02/09 16:54:04;;;;;;;13.27;4.30;;;;;;;;;;6256123;28;20137;-67
2022/02/09 17:08:22;;;;;;;14.70;4.85;;;;;;;;;;6255204;28;20057;-67
2022/02/09 17:20:37;;;;;;;7.75;3.40;;;;;;;;;;6258229;28;20053;-64
2022/02/09 17:23:40;;;;;;;12.10;3.33;;;;;;;;;;6260462;28;20060;-64
2022/02/09 17:26:42;;;;;;;11.05;3.10;;;;;;;;;;6258872;28;20516;-64
2022/02/09 17:30:06;;;;;;;10.15;3.17;;;;;;;;;;6261800;28;20049;-64
2022/02/09 17:33:13;;;;;;;5.25;2.40;;;;;;;;;;6259346;28;20167;-64
2022/02/09 17:36:20;;;;;;;15.88;3.13;;;;;;;;;;6260424;28;20147;-64
2022/02/09 17:53:23;;;;;;;9.63;3.22;;;;;;;;;;6260513;28;20132;-64
2022/02/09 17:56:12;;;;;;;8.15;1.98;;;;;;;;;;6257458;28;20124;-64
2022/02/09 17:59:19;;;;;;;7.65;1.90;;;;;;;;;;6258216;28;20049;-64
2022/02/09 18:02:22;;;;;;;7.95;2.15;;;;;;;;;;6262380;28;20037;-64
2022/02/09 18:05:30;;;;;;;7.13;2.15;;;;;;;;;;6260152;28;20041;-64
2022/02/09 18:08:38;;;;;;;11.80;2.00;;;;;;;;;;6262926;28;20049;-64
2022/02/09 18:11:50;;;;;;;6.35;2.15;;;;;;;;;;6258852;28;20198;-64
2022/02/09 18:15:26;;;;;;;7.82;2.70;;;;;;;;;;6264437;28;20049;-64
2022/02/09 18:25:30;;;;;;;8.02;2.20;;;;;;;;;;6261897;28;20053;-64
2022/02/09 18:28:58;;;;;;;;;;;;;;;;;;6255800;28;20093;-64
2022/02/09 18:32:36;;;;;;;7.40;2.13;;;;;;;;;;6259691;28;20389;-64
2022/02/09 18:39:57;;;;;;;5.75;2.13;;;;;;;;;;6258778;28;20156;-64
2022/02/09 18:42:55;;;;;;;14.55;2.80;;;;;;;;;;6259016;28;20037;-64
2022/02/09 18:46:03;;;;;;;6.63;2.53;;;;;;;;;;6261226;28;20255;-64
2022/02/09 19:02:46;;;;;;;12.15;2.67;;;;;;;;;;6259311;28;20061;-63
2022/02/09 19:05:50;;;;;;;6.90;2.45;;;;;;;;;;6260167;28;20088;-63
2022/02/09 19:15:46;;;;;;;8.68;3.08;;;;;;;;;;6259091;28;20136;-64
2022/02/09 19:19:04;;;;;;;14.30;3.97;;;;;;;;;;6260402;28;20126;-64
2022/02/09 19:32:25;;;;;;;11.93;3.60;;;;;;;;;;6247509;28;20053;-63
2022/02/09 19:45:54;;;;;;;11.05;2.85;;;;;;;;;;6226263;28;20095;-65
2022/02/09 19:49:02;;;;;;;11.13;3.05;;;;;;;;;;6254457;28;20049;-65
2022/02/09 19:52:16;;;;;;;9.43;2.92;;;;;;;;;;6261838;28;20135;-64
2022/02/09 19:55:33;;;;;;;9.13;2.80;;;;;;;;;;6260142;28;20055;-65
2022/02/09 19:58:41;;;;;;;9.30;3.35;;;;;;;;;;6261362;28;20045;-65
2022/02/09 20:01:44;;;;;;;9.95;2.83;;;;;;;;;;6260680;28;20049;-64
2022/02/09 20:04:46;;;;;;;11.18;3.05;;;;;;;;;;6258837;28;20159;-65
2022/02/09 20:07:47;;;;;;;12.25;3.03;;;;;;;;;;6256975;28;20041;-65
2022/02/09 20:10:49;;;;;;;10.48;3.10;;;;;;;;;;6252828;28;20065;-65
2022/02/09 20:13:53;;;;;;;15.55;4.95;;;;;;;;;;6254858;28;20060;-65
2022/02/09 20:16:54;;;;;;;11.20;3.72;;;;;;;;;;6253203;28;20501;-67
2022/02/09 20:19:57;;;;;;;9.98;3.40;;;;;;;;;;6252043;28;20049;-66
2022/02/09 20:22:59;;;;;;;8.77;2.97;;;;;;;;;;6256572;28;20077;-68
2022/02/09 20:26:06;;;;;;;7.10;2.67;;;;;;;;;;6253701;28;20041;-66
2022/02/09 20:29:13;;;;;;;12.05;3.53;;;;;;;;;;6252118;28;20114;-67
2022/02/09 20:32:20;;;;;;;13.15;3.20;;;;;;;;;;6252969;28;20045;-67
2022/02/09 20:35:22;;;;;;;9.43;2.83;;;;;;;;;;6254529;28;20048;-66
2022/02/09 20:38:28;;;;;;;11.38;3.20;;;;;;;;;;6254041;28;20041;-67
2022/02/09 20:41:32;;;;;;;11.13;4.15;;;;;;;;;;6254656;28;20120;-67
2022/02/09 20:44:40;;;;;;;;;;;;;;;;;;6260938;28;20045;-66
2022/02/09 20:47:45;;;;;;;9.15;3.13;;;;;;;;;;6253715;28;20417;-66
2022/02/09 20:50:46;;;;;;;12.45;3.20;;;;;;;;;;6263732;28;20121;-65
2022/02/09 20:53:48;;;;;;;12.82;3.58;;;;;;;;;;6258565;28;20045;-65
2022/02/09 20:56:49;;;;;;;11.43;2.88;;;;;;;;;;6266541;28;20041;-66
2022/02/09 20:59:54;;;;;;;11.60;3.90;;;;;;;;;;6260834;28;20053;-66
2022/02/09 21:03:04;;;;;;;12.20;3.70;;;;;;;;;;6263284;28;20123;-65
2022/02/09 21:06:14;;;;;;;8.88;3.13;;;;;;;;;;6261543;28;20037;-65
2022/02/09 21:09:24;;;;;;;8.70;3.20;;;;;;;;;;6264250;28;20076;-67
2022/02/09 21:12:33;;;;;;;10.63;3.97;;;;;;;;;;6262812;28;20048;-65
2022/02/09 21:15:49;;;;;;;11.85;3.60;;;;;;;;;;6257928;28;20242;-65
2022/02/09 21:19:24;;;;;;;12.57;4.22;;;;;;;;;;6259945;28;20037;-65
2022/02/09 21:22:54;;;;;;;;;;;;;;;;;;6261634;28;20041;-65
2022/02/09 21:26:27;;;;;;;11.10;3.83;;;;;;;;;;6265293;28;20003;-68
2022/02/09 21:46:51;;;;;;;13.30;3.88;;;;;;;;;;6238350;28;20041;-67
2022/02/09 21:56:27;;;;;;;10.32;4.18;;;;;;;;;;6257964;28;20051;-66
2022/02/09 22:00:00;;;;;;;13.68;4.88;;;;;;;;;;6263056;28;20049;-65
2022/02/09 22:06:38;;;;;;;9.05;3.88;;;;;;;;;;6260098;28;20049;-65
2022/02/09 22:16:32;;;;;;;10.48;5.20;;;;;;;;;;6260424;28;20041;-65
2022/02/09 22:19:46;;;;;;;12.40;5.43;;;;;;;;;;6259455;28;20041;-65
2022/02/09 22:29:52;;;;;;;10.70;5.93;;;;;;;;;;6258375;28;20052;-65
2022/02/09 22:47:03;;;;;;;14.13;7.03;;;;;;;;;;6264044;28;20053;-66
2022/02/09 22:50:11;;;;;;;12.15;5.85;;;;;;;;;;6257179;28;20049;-66
2022/02/09 22:56:34;;;;;;;11.48;6.55;;;;;;;;;;6255434;28;20068;-66
2022/02/09 22:59:42;;;;;;;20.35;7.80;;;;;;;;;;6262076;28;20069;-65
2022/02/09 23:02:49;;;;;;;13.25;6.53;;;;;;;;;;6260919;28;20053;-65
2022/02/09 23:09:37;;;;;;;16.30;7.30;;;;;;;;;;6255124;28;20388;-65
2022/02/09 23:12:45;;;;;;;16.95;7.70;;;;;;;;;;6259417;28;20044;-65
2022/02/09 23:16:01;;;;;;;17.85;7.53;;;;;;;;;;6254495;28;20041;-66
